sensor_id;sensor_type;location;lat;lon;timestamp;P1;durP1;ratioP1;P2;durP2;ratioP2
6566;SDS011;3317;43.994;22.878;2022-07-31T00:02:09;7.60;;;6.80;;
6566;SDS011;3317;43.994;22.878;2022-07-31T00:04:36;8.03;;;7.07;;
6566;SDS011;3317;43.994;22.878;2022-07-31T00:07:03;9.60;;;7.93;;
6566;SDS011;3317;43.994;22.878;2022-07-31T00:09:30;7.60;;;6.73;;
6566;SDS011;3317;43.994;22.878;2022-07-31T00:11:58;7.47;;;6.67;;
6566;SDS011;3317;43.994;22.878;2022-07-31T00:14:26;7.77;;;6.90;;
6566;SDS011;3317;43.994;22.878;2022-07-31T00:16:53;8.83;;;7.40;;
6566;SDS011;3317;43.994;22.878;2022-07-31T00:19:21;6.90;;;6.20;;
6566;SDS011;3317;43.994;22.878;2022-07-31T00:21:49;7.97;;;6.23;;
6566;SDS011;3317;43.994;22.878;2022-07-31T00:24:16;11.93;;;6.57;;
6566;SDS011;3317;43.994;22.878;2022-07-31T00:26:43;10.27;;;7.10;;
6566;SDS011;3317;43.994;22.878;2022-07-31T00:29:11;11.17;;;7.60;;
6566;SDS011;3317;43.994;22.878;2022-07-31T00:31:38;10.00;;;7.30;;
6566;SDS011;3317;43.994;22.878;2022-07-31T00:34:05;7.57;;;6.00;;
6566;SDS011;3317;43.994;22.878;2022-07-31T00:36:32;7.83;;;6.60;;
6566;SDS011;3317;43.994;22.878;2022-07-31T00:38:59;7.37;;;6.33;;
6566;SDS011;3317;43.994;22.878;2022-07-31T00:41:35;7.77;;;7.07;;
6566;SDS011;3317;43.994;22.878;2022-07-31T00:44:03;8.03;;;7.10;;
6566;SDS011;3317;43.994;22.878;2022-07-31T00:46:32;13.03;;;6.63;;
6566;SDS011;3317;43.994;22.878;2022-07-31T00:49:02;7.80;;;6.93;;
6566;SDS011;3317;43.994;22.878;2022-07-31T00:51:30;10.60;;;6.83;;
6566;SDS011;3317;43.994;22.878;2022-07-31T00:53:58;7.37;;;6.67;;
6566;SDS011;3317;43.994;22.878;2022-07-31T00:56:26;7.97;;;7.07;;
6566;SDS011;3317;43.994;22.878;2022-07-31T00:58:53;8.80;;;6.83;;
6566;SDS011;3317;43.994;22.878;2022-07-31T01:01:20;9.17;;;6.37;;
6566;SDS011;3317;43.994;22.878;2022-07-31T01:03:49;10.87;;;7.40;;
6566;SDS011;3317;43.994;22.878;2022-07-31T01:06:17;7.40;;;6.70;;
6566;SDS011;3317;43.994;22.878;2022-07-31T01:08:45;8.63;;;6.77;;
6566;SDS011;3317;43.994;22.878;2022-07-31T01:11:12;9.20;;;7.53;;
6566;SDS011;3317;43.994;22.878;2022-07-31T01:13:44;7.23;;;6.53;;
6566;SDS011;3317;43.994;22.878;2022-07-31T01:16:14;9.97;;;7.30;;
6566;SDS011;3317;43.994;22.878;2022-07-31T01:18:43;7.90;;;7.00;;
6566;SDS011;3317;43.994;22.878;2022-07-31T01:21:15;7.63;;;6.63;;
6566;SDS011;3317;43.994;22.878;2022-07-31T01:24:03;8.37;;;7.47;;
6566;SDS011;3317;43.994;22.878;2022-07-31T01:26:42;8.40;;;7.33;;
6566;SDS011;3317;43.994;22.878;2022-07-31T01:29:17;11.37;;;7.27;;
6566;SDS011;3317;43.994;22.878;2022-07-31T01:31:54;8.20;;;6.90;;
6566;SDS011;3317;43.994;22.878;2022-07-31T01:34:26;12.33;;;7.50;;
6566;SDS011;3317;43.994;22.878;2022-07-31T01:37:00;10.80;;;8.03;;
6566;SDS011;3317;43.994;22.878;2022-07-31T01:39:32;7.90;;;7.10;;
6566;SDS011;3317;43.994;22.878;2022-07-31T01:42:02;8.83;;;7.47;;
6566;SDS011;3317;43.994;22.878;2022-07-31T01:44:34;8.57;;;7.70;;
6566;SDS011;3317;43.994;22.878;2022-07-31T01:47:05;9.30;;;7.67;;
6566;SDS011;3317;43.994;22.878;2022-07-31T01:49:34;16.20;;;7.90;;
6566;SDS011;3317;43.994;22.878;2022-07-31T01:52:03;7.80;;;7.00;;
6566;SDS011;3317;43.994;22.878;2022-07-31T01:54:31;9.13;;;7.90;;
6566;SDS011;3317;43.994;22.878;2022-07-31T01:57:00;10.20;;;7.63;;
6566;SDS011;3317;43.994;22.878;2022-07-31T01:59:29;12.13;;;8.07;;
6566;SDS011;3317;43.994;22.878;2022-07-31T02:02:02;9.57;;;7.93;;
6566;SDS011;3317;43.994;22.878;2022-07-31T02:04:29;8.77;;;7.80;;
6566;SDS011;3317;43.994;22.878;2022-07-31T02:06:58;8.00;;;7.20;;
6566;SDS011;3317;43.994;22.878;2022-07-31T02:09:28;9.83;;;8.80;;
6566;SDS011;3317;43.994;22.878;2022-07-31T02:11:59;10.50;;;8.20;;
6566;SDS011;3317;43.994;22.878;2022-07-31T02:14:26;12.60;;;7.47;;
6566;SDS011;3317;43.994;22.878;2022-07-31T02:16:55;9.10;;;8.17;;
6566;SDS011;3317;43.994;22.878;2022-07-31T02:19:23;12.80;;;9.00;;
6566;SDS011;3317;43.994;22.878;2022-07-31T02:21:53;10.50;;;8.90;;
6566;SDS011;3317;43.994;22.878;2022-07-31T02:24:22;10.07;;;8.90;;
6566;SDS011;3317;43.994;22.878;2022-07-31T02:26:49;9.23;;;8.13;;
6566;SDS011;3317;43.994;22.878;2022-07-31T02:29:19;9.83;;;8.93;;
6566;SDS011;3317;43.994;22.878;2022-07-31T02:31:47;11.00;;;9.27;;
6566;SDS011;3317;43.994;22.878;2022-07-31T02:34:17;11.03;;;9.20;;
6566;SDS011;3317;43.994;22.878;2022-07-31T02:36:45;10.17;;;8.07;;
6566;SDS011;3317;43.994;22.878;2022-07-31T02:39:13;9.80;;;8.23;;
6566;SDS011;3317;43.994;22.878;2022-07-31T02:41:40;10.27;;;9.07;;
6566;SDS011;3317;43.994;22.878;2022-07-31T02:44:09;10.80;;;9.73;;
6566;SDS011;3317;43.994;22.878;2022-07-31T02:46:37;10.60;;;9.50;;
6566;SDS011;3317;43.994;22.878;2022-07-31T02:49:05;9.43;;;8.47;;
6566;SDS011;3317;43.994;22.878;2022-07-31T02:51:34;11.73;;;9.77;;
6566;SDS011;3317;43.994;22.878;2022-07-31T02:54:03;11.40;;;9.03;;
6566;SDS011;3317;43.994;22.878;2022-07-31T02:56:30;10.97;;;9.87;;
6566;SDS011;3317;43.994;22.878;2022-07-31T02:58:59;12.13;;;9.90;;
6566;SDS011;3317;43.994;22.878;2022-07-31T03:01:26;11.30;;;9.93;;
6566;SDS011;3317;43.994;22.878;2022-07-31T03:03:54;11.33;;;9.93;;
6566;SDS011;3317;43.994;22.878;2022-07-31T03:06:20;11.23;;;10.03;;
6566;SDS011;3317;43.994;22.878;2022-07-31T03:08:49;11.60;;;10.40;;
6566;SDS011;3317;43.994;22.878;2022-07-31T03:11:16;12.03;;;10.70;;
6566;SDS011;3317;43.994;22.878;2022-07-31T03:13:43;12.90;;;10.83;;
6566;SDS011;3317;43.994;22.878;2022-07-31T03:16:12;12.00;;;10.80;;
6566;SDS011;3317;43.994;22.878;2022-07-31T03:18:41;14.80;;;11.00;;
6566;SDS011;3317;43.994;22.878;2022-07-31T03:21:08;14.90;;;11.10;;
6566;SDS011;3317;43.994;22.878;2022-07-31T03:23:37;12.60;;;11.30;;
6566;SDS011;3317;43.994;22.878;2022-07-31T03:26:06;12.90;;;11.60;;
6566;SDS011;3317;43.994;22.878;2022-07-31T03:28:34;13.40;;;12.00;;
6566;SDS011;3317;43.994;22.878;2022-07-31T03:31:01;15.17;;;11.00;;
6566;SDS011;3317;43.994;22.878;2022-07-31T03:33:28;14.70;;;12.70;;
6566;SDS011;3317;43.994;22.878;2022-07-31T03:35:55;16.93;;;13.17;;
6566;SDS011;3317;43.994;22.878;2022-07-31T03:38:23;13.80;;;11.90;;
6566;SDS011;3317;43.994;22.878;2022-07-31T03:40:50;15.20;;;13.40;;
6566;SDS011;3317;43.994;22.878;2022-07-31T03:43:18;12.80;;;11.50;;
6566;SDS011;3317;43.994;22.878;2022-07-31T03:45:47;14.67;;;13.10;;
6566;SDS011;3317;43.994;22.878;2022-07-31T03:48:16;13.87;;;12.47;;
6566;SDS011;3317;43.994;22.878;2022-07-31T03:50:43;14.70;;;13.10;;
6566;SDS011;3317;43.994;22.878;2022-07-31T03:53:11;15.97;;;13.27;;
6566;SDS011;3317;43.994;22.878;2022-07-31T03:55:38;16.47;;;13.10;;
6566;SDS011;3317;43.994;22.878;2022-07-31T03:58:08;17.47;;;13.60;;
6566;SDS011;3317;43.994;22.878;2022-07-31T04:00:37;17.90;;;14.07;;
6566;SDS011;3317;43.994;22.878;2022-07-31T04:03:05;15.50;;;13.20;;
6566;SDS011;3317;43.994;22.878;2022-07-31T04:05:33;15.30;;;13.80;;
6566;SDS011;3317;43.994;22.878;2022-07-31T04:08:00;16.40;;;13.80;;
6566;SDS011;3317;43.994;22.878;2022-07-31T04:10:27;18.40;;;13.73;;
6566;SDS011;3317;43.994;22.878;2022-07-31T04:12:54;14.60;;;13.07;;
6566;SDS011;3317;43.994;22.878;2022-07-31T04:15:21;17.90;;;14.17;;
6566;SDS011;3317;43.994;22.878;2022-07-31T04:17:50;15.50;;;13.87;;
6566;SDS011;3317;43.994;22.878;2022-07-31T04:20:17;14.50;;;12.87;;
6566;SDS011;3317;43.994;22.878;2022-07-31T04:22:45;18.17;;;14.27;;
6566;SDS011;3317;43.994;22.878;2022-07-31T04:25:12;15.27;;;13.63;;
6566;SDS011;3317;43.994;22.878;2022-07-31T04:27:40;18.33;;;13.57;;
6566;SDS011;3317;43.994;22.878;2022-07-31T04:30:08;19.43;;;13.67;;
6566;SDS011;3317;43.994;22.878;2022-07-31T04:32:36;15.77;;;13.53;;
6566;SDS011;3317;43.994;22.878;2022-07-31T04:35:05;15.20;;;13.13;;
6566;SDS011;3317;43.994;22.878;2022-07-31T04:37:33;17.40;;;13.80;;
6566;SDS011;3317;43.994;22.878;2022-07-31T04:40:00;16.37;;;14.57;;
6566;SDS011;3317;43.994;22.878;2022-07-31T04:42:28;19.03;;;14.60;;
6566;SDS011;3317;43.994;22.878;2022-07-31T04:44:55;17.23;;;14.67;;
6566;SDS011;3317;43.994;22.878;2022-07-31T04:47:22;16.50;;;14.40;;
6566;SDS011;3317;43.994;22.878;2022-07-31T04:49:49;23.33;;;15.20;;
6566;SDS011;3317;43.994;22.878;2022-07-31T04:52:18;17.00;;;13.80;;
6566;SDS011;3317;43.994;22.878;2022-07-31T04:54:45;17.73;;;15.40;;
6566;SDS011;3317;43.994;22.878;2022-07-31T04:57:12;17.60;;;14.80;;
6566;SDS011;3317;43.994;22.878;2022-07-31T04:59:39;17.13;;;15.00;;
6566;SDS011;3317;43.994;22.878;2022-07-31T05:02:06;18.93;;;14.93;;
6566;SDS011;3317;43.994;22.878;2022-07-31T05:04:33;16.30;;;14.00;;
6566;SDS011;3317;43.994;22.878;2022-07-31T05:07:00;17.37;;;15.10;;
6566;SDS011;3317;43.994;22.878;2022-07-31T05:09:28;19.73;;;15.50;;
6566;SDS011;3317;43.994;22.878;2022-07-31T05:11:57;17.77;;;15.20;;
6566;SDS011;3317;43.994;22.878;2022-07-31T05:14:24;18.00;;;15.90;;
6566;SDS011;3317;43.994;22.878;2022-07-31T05:16:51;18.40;;;15.47;;
6566;SDS011;3317;43.994;22.878;2022-07-31T05:19:18;19.07;;;16.27;;
6566;SDS011;3317;43.994;22.878;2022-07-31T05:21:47;18.77;;;16.00;;
6566;SDS011;3317;43.994;22.878;2022-07-31T05:24:15;16.70;;;14.80;;
6566;SDS011;3317;43.994;22.878;2022-07-31T05:26:48;17.00;;;15.20;;
6566;SDS011;3317;43.994;22.878;2022-07-31T05:29:15;20.43;;;15.47;;
6566;SDS011;3317;43.994;22.878;2022-07-31T05:31:43;20.40;;;15.83;;
6566;SDS011;3317;43.994;22.878;2022-07-31T05:34:10;18.97;;;15.70;;
6566;SDS011;3317;43.994;22.878;2022-07-31T05:36:37;17.87;;;15.93;;
6566;SDS011;3317;43.994;22.878;2022-07-31T05:39:04;17.77;;;15.60;;
6566;SDS011;3317;43.994;22.878;2022-07-31T05:41:33;15.83;;;14.10;;
6566;SDS011;3317;43.994;22.878;2022-07-31T05:44:02;19.77;;;15.00;;
6566;SDS011;3317;43.994;22.878;2022-07-31T05:46:29;17.73;;;15.57;;
6566;SDS011;3317;43.994;22.878;2022-07-31T05:48:57;17.70;;;15.50;;
6566;SDS011;3317;43.994;22.878;2022-07-31T05:51:24;16.70;;;13.70;;
6566;SDS011;3317;43.994;22.878;2022-07-31T05:53:51;18.87;;;14.83;;
6566;SDS011;3317;43.994;22.878;2022-07-31T05:56:18;21.80;;;16.83;;
6566;SDS011;3317;43.994;22.878;2022-07-31T05:58:46;17.90;;;15.43;;
6566;SDS011;3317;43.994;22.878;2022-07-31T06:01:15;16.93;;;15.13;;
6566;SDS011;3317;43.994;22.878;2022-07-31T06:03:42;18.03;;;15.50;;
6566;SDS011;3317;43.994;22.878;2022-07-31T06:06:09;20.97;;;16.30;;
6566;SDS011;3317;43.994;22.878;2022-07-31T06:08:36;18.70;;;15.67;;
6566;SDS011;3317;43.994;22.878;2022-07-31T06:11:03;18.50;;;14.40;;
6566;SDS011;3317;43.994;22.878;2022-07-31T06:13:30;16.70;;;14.90;;
6566;SDS011;3317;43.994;22.878;2022-07-31T06:15:57;16.07;;;14.30;;
6566;SDS011;3317;43.994;22.878;2022-07-31T06:18:25;15.50;;;13.50;;
6566;SDS011;3317;43.994;22.878;2022-07-31T06:20:52;16.30;;;14.10;;
6566;SDS011;3317;43.994;22.878;2022-07-31T06:23:19;15.83;;;13.80;;
6566;SDS011;3317;43.994;22.878;2022-07-31T06:25:48;18.10;;;14.40;;
6566;SDS011;3317;43.994;22.878;2022-07-31T06:28:15;16.50;;;14.60;;
6566;SDS011;3317;43.994;22.878;2022-07-31T06:30:42;16.50;;;13.90;;
6566;SDS011;3317;43.994;22.878;2022-07-31T06:33:09;15.87;;;14.27;;
6566;SDS011;3317;43.994;22.878;2022-07-31T06:35:37;15.47;;;13.87;;
6566;SDS011;3317;43.994;22.878;2022-07-31T06:38:04;16.63;;;14.23;;
6566;SDS011;3317;43.994;22.878;2022-07-31T06:40:31;13.80;;;12.40;;
6566;SDS011;3317;43.994;22.878;2022-07-31T06:42:58;14.23;;;12.83;;
6566;SDS011;3317;43.994;22.878;2022-07-31T06:45:25;17.60;;;13.17;;
6566;SDS011;3317;43.994;22.878;2022-07-31T06:47:52;14.83;;;13.33;;
6566;SDS011;3317;43.994;22.878;2022-07-31T06:50:19;13.17;;;11.80;;
6566;SDS011;3317;43.994;22.878;2022-07-31T06:52:47;13.30;;;12.00;;
6566;SDS011;3317;43.994;22.878;2022-07-31T06:55:14;13.97;;;12.23;;
6566;SDS011;3317;43.994;22.878;2022-07-31T06:57:42;14.00;;;11.30;;
6566;SDS011;3317;43.994;22.878;2022-07-31T07:00:09;11.37;;;10.27;;
6566;SDS011;3317;43.994;22.878;2022-07-31T07:02:37;10.83;;;9.73;;
6566;SDS011;3317;43.994;22.878;2022-07-31T07:05:05;10.43;;;9.20;;
6566;SDS011;3317;43.994;22.878;2022-07-31T07:07:33;9.70;;;8.70;;
6566;SDS011;3317;43.994;22.878;2022-07-31T07:10:03;9.43;;;8.53;;
6566;SDS011;3317;43.994;22.878;2022-07-31T07:12:31;10.40;;;9.40;;
6566;SDS011;3317;43.994;22.878;2022-07-31T07:14:58;11.60;;;9.10;;
6566;SDS011;3317;43.994;22.878;2022-07-31T07:17:25;12.10;;;9.23;;
6566;SDS011;3317;43.994;22.878;2022-07-31T07:19:52;10.63;;;9.53;;
6566;SDS011;3317;43.994;22.878;2022-07-31T07:22:19;10.67;;;7.03;;
6566;SDS011;3317;43.994;22.878;2022-07-31T07:24:46;8.57;;;7.10;;
6566;SDS011;3317;43.994;22.878;2022-07-31T07:27:14;7.90;;;7.10;;
6566;SDS011;3317;43.994;22.878;2022-07-31T07:29:41;8.83;;;7.83;;
6566;SDS011;3317;43.994;22.878;2022-07-31T07:32:08;10.70;;;8.07;;
6566;SDS011;3317;43.994;22.878;2022-07-31T07:34:37;8.53;;;7.70;;
6566;SDS011;3317;43.994;22.878;2022-07-31T07:37:04;8.70;;;7.80;;
6566;SDS011;3317;43.994;22.878;2022-07-31T07:39:31;10.43;;;8.10;;
6566;SDS011;3317;43.994;22.878;2022-07-31T07:41:58;8.90;;;8.00;;
6566;SDS011;3317;43.994;22.878;2022-07-31T07:44:26;9.03;;;8.13;;
6566;SDS011;3317;43.994;22.878;2022-07-31T07:46:54;9.60;;;8.60;;
6566;SDS011;3317;43.994;22.878;2022-07-31T07:49:21;9.47;;;8.57;;
6566;SDS011;3317;43.994;22.878;2022-07-31T07:51:48;12.30;;;8.53;;
6566;SDS011;3317;43.994;22.878;2022-07-31T07:54:15;10.90;;;8.70;;
6566;SDS011;3317;43.994;22.878;2022-07-31T07:56:43;10.83;;;9.17;;
6566;SDS011;3317;43.994;22.878;2022-07-31T07:59:16;10.57;;;9.47;;
6566;SDS011;3317;43.994;22.878;2022-07-31T08:01:44;10.50;;;9.43;;
6566;SDS011;3317;43.994;22.878;2022-07-31T08:04:11;11.07;;;9.30;;
6566;SDS011;3317;43.994;22.878;2022-07-31T08:06:38;10.93;;;9.93;;
6566;SDS011;3317;43.994;22.878;2022-07-31T08:09:05;13.50;;;10.67;;
6566;SDS011;3317;43.994;22.878;2022-07-31T08:11:32;9.83;;;8.93;;
6566;SDS011;3317;43.994;22.878;2022-07-31T08:14:00;10.47;;;9.40;;
6566;SDS011;3317;43.994;22.878;2022-07-31T08:16:27;9.70;;;8.30;;
6566;SDS011;3317;43.994;22.878;2022-07-31T08:18:55;9.50;;;8.60;;
6566;SDS011;3317;43.994;22.878;2022-07-31T08:21:22;9.60;;;8.70;;
6566;SDS011;3317;43.994;22.878;2022-07-31T08:23:49;9.13;;;8.23;;
6566;SDS011;3317;43.994;22.878;2022-07-31T08:26:16;6.17;;;5.43;;
6566;SDS011;3317;43.994;22.878;2022-07-31T08:28:43;5.77;;;4.77;;
6566;SDS011;3317;43.994;22.878;2022-07-31T08:31:10;4.73;;;4.33;;
6566;SDS011;3317;43.994;22.878;2022-07-31T08:33:37;10.33;;;5.50;;
6566;SDS011;3317;43.994;22.878;2022-07-31T08:36:06;5.30;;;4.80;;
6566;SDS011;3317;43.994;22.878;2022-07-31T08:38:33;6.10;;;4.73;;
6566;SDS011;3317;43.994;22.878;2022-07-31T08:41:02;5.13;;;4.50;;
6566;SDS011;3317;43.994;22.878;2022-07-31T08:43:30;5.03;;;4.50;;
6566;SDS011;3317;43.994;22.878;2022-07-31T08:45:57;5.73;;;4.50;;
6566;SDS011;3317;43.994;22.878;2022-07-31T08:48:27;5.27;;;4.33;;
6566;SDS011;3317;43.994;22.878;2022-07-31T08:50:57;5.47;;;4.73;;
6566;SDS011;3317;43.994;22.878;2022-07-31T08:53:27;4.83;;;4.20;;
6566;SDS011;3317;43.994;22.878;2022-07-31T08:55:57;5.23;;;4.37;;
6566;SDS011;3317;43.994;22.878;2022-07-31T08:58:24;4.73;;;4.33;;
6566;SDS011;3317;43.994;22.878;2022-07-31T09:00:51;5.37;;;4.80;;
6566;SDS011;3317;43.994;22.878;2022-07-31T09:03:20;6.70;;;5.50;;
6566;SDS011;3317;43.994;22.878;2022-07-31T09:05:47;5.80;;;5.30;;
6566;SDS011;3317;43.994;22.878;2022-07-31T09:08:14;5.07;;;4.67;;
6566;SDS011;3317;43.994;22.878;2022-07-31T09:10:43;4.80;;;4.20;;
6566;SDS011;3317;43.994;22.878;2022-07-31T09:13:11;5.73;;;5.13;;
6566;SDS011;3317;43.994;22.878;2022-07-31T09:15:39;5.50;;;4.77;;
6566;SDS011;3317;43.994;22.878;2022-07-31T09:18:14;4.13;;;3.83;;
6566;SDS011;3317;43.994;22.878;2022-07-31T09:20:46;5.07;;;3.30;;
6566;SDS011;3317;43.994;22.878;2022-07-31T09:23:20;3.93;;;3.57;;
6566;SDS011;3317;43.994;22.878;2022-07-31T09:25:52;5.83;;;3.37;;
6566;SDS011;3317;43.994;22.878;2022-07-31T09:28:29;3.67;;;3.30;;
6566;SDS011;3317;43.994;22.878;2022-07-31T09:30:57;3.00;;;2.70;;
6566;SDS011;3317;43.994;22.878;2022-07-31T09:33:25;4.03;;;3.23;;
6566;SDS011;3317;43.994;22.878;2022-07-31T09:35:54;2.87;;;2.63;;
6566;SDS011;3317;43.994;22.878;2022-07-31T09:38:28;4.47;;;3.30;;
6566;SDS011;3317;43.994;22.878;2022-07-31T09:40:58;3.50;;;3.20;;
6566;SDS011;3317;43.994;22.878;2022-07-31T09:43:34;3.60;;;3.30;;
6566;SDS011;3317;43.994;22.878;2022-07-31T09:46:04;3.90;;;2.93;;
6566;SDS011;3317;43.994;22.878;2022-07-31T09:48:33;3.23;;;3.00;;
6566;SDS011;3317;43.994;22.878;2022-07-31T09:51:01;4.43;;;3.57;;
6566;SDS011;3317;43.994;22.878;2022-07-31T09:53:37;4.07;;;3.30;;
6566;SDS011;3317;43.994;22.878;2022-07-31T09:56:07;3.40;;;2.70;;
6566;SDS011;3317;43.994;22.878;2022-07-31T09:58:36;3.00;;;2.70;;
6566;SDS011;3317;43.994;22.878;2022-07-31T10:01:04;3.97;;;2.90;;
6566;SDS011;3317;43.994;22.878;2022-07-31T10:03:33;3.97;;;3.00;;
6566;SDS011;3317;43.994;22.878;2022-07-31T10:06:02;2.90;;;2.70;;
6566;SDS011;3317;43.994;22.878;2022-07-31T10:08:32;3.80;;;3.40;;
6566;SDS011;3317;43.994;22.878;2022-07-31T10:11:02;3.20;;;2.97;;
6566;SDS011;3317;43.994;22.878;2022-07-31T10:13:34;2.73;;;2.50;;
6566;SDS011;3317;43.994;22.878;2022-07-31T10:16:04;5.57;;;4.77;;
6566;SDS011;3317;43.994;22.878;2022-07-31T10:18:34;5.83;;;2.97;;
6566;SDS011;3317;43.994;22.878;2022-07-31T10:21:03;2.97;;;2.67;;
6566;SDS011;3317;43.994;22.878;2022-07-31T10:23:32;6.53;;;3.03;;
6566;SDS011;3317;43.994;22.878;2022-07-31T10:26:00;3.13;;;2.83;;
6566;SDS011;3317;43.994;22.878;2022-07-31T10:28:28;3.30;;;3.00;;
6566;SDS011;3317;43.994;22.878;2022-07-31T10:30:56;3.53;;;2.90;;
6566;SDS011;3317;43.994;22.878;2022-07-31T10:33:24;4.10;;;2.50;;
6566;SDS011;3317;43.994;22.878;2022-07-31T10:35:54;2.77;;;2.57;;
6566;SDS011;3317;43.994;22.878;2022-07-31T10:38:26;2.77;;;2.57;;
6566;SDS011;3317;43.994;22.878;2022-07-31T10:40:58;4.37;;;2.80;;
6566;SDS011;3317;43.994;22.878;2022-07-31T10:43:35;3.93;;;2.97;;
6566;SDS011;3317;43.994;22.878;2022-07-31T10:46:10;2.50;;;2.30;;
6566;SDS011;3317;43.994;22.878;2022-07-31T10:48:48;4.90;;;2.33;;
6566;SDS011;3317;43.994;22.878;2022-07-31T10:51:16;3.13;;;2.70;;
6566;SDS011;3317;43.994;22.878;2022-07-31T10:53:51;2.47;;;2.20;;
6566;SDS011;3317;43.994;22.878;2022-07-31T10:56:20;2.90;;;2.60;;
6566;SDS011;3317;43.994;22.878;2022-07-31T10:58:48;9.30;;;2.80;;
6566;SDS011;3317;43.994;22.878;2022-07-31T11:01:18;2.77;;;2.57;;
6566;SDS011;3317;43.994;22.878;2022-07-31T11:03:47;2.60;;;2.40;;
6566;SDS011;3317;43.994;22.878;2022-07-31T11:06:18;3.33;;;2.90;;
6566;SDS011;3317;43.994;22.878;2022-07-31T11:08:46;3.57;;;3.27;;
6566;SDS011;3317;43.994;22.878;2022-07-31T11:11:15;3.43;;;3.00;;
6566;SDS011;3317;43.994;22.878;2022-07-31T11:13:49;4.57;;;2.80;;
6566;SDS011;3317;43.994;22.878;2022-07-31T11:16:20;3.80;;;3.00;;
6566;SDS011;3317;43.994;22.878;2022-07-31T11:18:55;3.93;;;2.87;;
6566;SDS011;3317;43.994;22.878;2022-07-31T11:21:33;3.57;;;3.10;;
6566;SDS011;3317;43.994;22.878;2022-07-31T11:24:10;6.50;;;3.10;;
6566;SDS011;3317;43.994;22.878;2022-07-31T11:26:40;3.43;;;3.13;;
6566;SDS011;3317;43.994;22.878;2022-07-31T11:29:08;4.07;;;3.77;;
6566;SDS011;3317;43.994;22.878;2022-07-31T11:31:37;3.43;;;3.10;;
6566;SDS011;3317;43.994;22.878;2022-07-31T11:34:04;3.83;;;3.43;;
6566;SDS011;3317;43.994;22.878;2022-07-31T11:36:32;3.10;;;2.80;;
6566;SDS011;3317;43.994;22.878;2022-07-31T11:38:59;3.70;;;3.40;;
6566;SDS011;3317;43.994;22.878;2022-07-31T11:41:26;3.50;;;3.30;;
6566;SDS011;3317;43.994;22.878;2022-07-31T11:43:57;4.17;;;3.27;;
6566;SDS011;3317;43.994;22.878;2022-07-31T11:46:24;4.00;;;3.20;;
6566;SDS011;3317;43.994;22.878;2022-07-31T11:48:54;3.50;;;3.10;;
6566;SDS011;3317;43.994;22.878;2022-07-31T11:51:22;3.80;;;3.50;;
6566;SDS011;3317;43.994;22.878;2022-07-31T11:53:50;4.00;;;3.40;;
6566;SDS011;3317;43.994;22.878;2022-07-31T11:56:19;4.97;;;3.60;;
6566;SDS011;3317;43.994;22.878;2022-07-31T11:58:47;6.00;;;3.80;;
6566;SDS011;3317;43.994;22.878;2022-07-31T12:01:15;4.17;;;3.63;;
6566;SDS011;3317;43.994;22.878;2022-07-31T12:03:44;3.60;;;3.40;;
6566;SDS011;3317;43.994;22.878;2022-07-31T12:06:16;3.80;;;3.50;;
6566;SDS011;3317;43.994;22.878;2022-07-31T12:08:45;4.70;;;4.30;;
6566;SDS011;3317;43.994;22.878;2022-07-31T12:11:12;5.03;;;3.60;;
6566;SDS011;3317;43.994;22.878;2022-07-31T12:13:43;4.13;;;3.83;;
6566;SDS011;3317;43.994;22.878;2022-07-31T12:16:11;4.50;;;4.10;;
6566;SDS011;3317;43.994;22.878;2022-07-31T12:18:44;4.47;;;4.10;;
6566;SDS011;3317;43.994;22.878;2022-07-31T12:21:14;4.40;;;4.00;;
6566;SDS011;3317;43.994;22.878;2022-07-31T12:23:44;6.40;;;4.03;;
6566;SDS011;3317;43.994;22.878;2022-07-31T12:26:20;4.53;;;4.23;;
6566;SDS011;3317;43.994;22.878;2022-07-31T12:28:55;4.50;;;3.83;;
6566;SDS011;3317;43.994;22.878;2022-07-31T12:31:23;4.47;;;4.00;;
6566;SDS011;3317;43.994;22.878;2022-07-31T12:33:50;4.57;;;3.90;;
6566;SDS011;3317;43.994;22.878;2022-07-31T12:36:18;4.13;;;3.73;;
6566;SDS011;3317;43.994;22.878;2022-07-31T12:38:45;4.83;;;3.90;;
6566;SDS011;3317;43.994;22.878;2022-07-31T12:41:23;4.00;;;3.70;;
6566;SDS011;3317;43.994;22.878;2022-07-31T12:43:50;3.70;;;3.40;;
6566;SDS011;3317;43.994;22.878;2022-07-31T12:46:17;4.23;;;3.83;;
6566;SDS011;3317;43.994;22.878;2022-07-31T12:48:45;4.17;;;3.80;;
6566;SDS011;3317;43.994;22.878;2022-07-31T12:51:14;3.90;;;3.50;;
6566;SDS011;3317;43.994;22.878;2022-07-31T12:53:45;4.20;;;3.90;;
6566;SDS011;3317;43.994;22.878;2022-07-31T12:56:14;4.30;;;3.90;;
6566;SDS011;3317;43.994;22.878;2022-07-31T12:58:41;3.80;;;3.50;;
6566;SDS011;3317;43.994;22.878;2022-07-31T13:01:09;3.60;;;3.30;;
6566;SDS011;3317;43.994;22.878;2022-07-31T13:03:36;4.80;;;4.10;;
6566;SDS011;3317;43.994;22.878;2022-07-31T13:06:03;3.70;;;3.40;;
6566;SDS011;3317;43.994;22.878;2022-07-31T13:08:29;5.00;;;4.50;;
6566;SDS011;3317;43.994;22.878;2022-07-31T13:11:00;4.00;;;3.60;;
6566;SDS011;3317;43.994;22.878;2022-07-31T13:13:27;5.53;;;2.93;;
6566;SDS011;3317;43.994;22.878;2022-07-31T13:15:54;3.20;;;3.00;;
6566;SDS011;3317;43.994;22.878;2022-07-31T13:18:21;3.33;;;2.80;;
6566;SDS011;3317;43.994;22.878;2022-07-31T13:20:48;3.83;;;2.90;;
6566;SDS011;3317;43.994;22.878;2022-07-31T13:23:15;3.30;;;2.97;;
6566;SDS011;3317;43.994;22.878;2022-07-31T13:25:42;3.40;;;3.10;;
6566;SDS011;3317;43.994;22.878;2022-07-31T13:28:11;2.87;;;2.67;;
6566;SDS011;3317;43.994;22.878;2022-07-31T13:30:38;4.83;;;2.70;;
6566;SDS011;3317;43.994;22.878;2022-07-31T13:33:05;3.47;;;3.20;;
6566;SDS011;3317;43.994;22.878;2022-07-31T13:35:32;3.10;;;2.83;;
6566;SDS011;3317;43.994;22.878;2022-07-31T13:37:59;2.60;;;2.40;;
6566;SDS011;3317;43.994;22.878;2022-07-31T13:40:26;3.03;;;2.70;;
6566;SDS011;3317;43.994;22.878;2022-07-31T13:43:12;3.07;;;2.73;;
6566;SDS011;3317;43.994;22.878;2022-07-31T13:45:41;9.00;;;3.57;;
6566;SDS011;3317;43.994;22.878;2022-07-31T13:48:08;5.30;;;3.50;;
6566;SDS011;3317;43.994;22.878;2022-07-31T13:50:35;3.43;;;3.13;;
6566;SDS011;3317;43.994;22.878;2022-07-31T13:53:03;3.70;;;3.40;;
6566;SDS011;3317;43.994;22.878;2022-07-31T13:55:30;3.57;;;3.30;;
6566;SDS011;3317;43.994;22.878;2022-07-31T13:57:57;3.40;;;3.10;;
6566;SDS011;3317;43.994;22.878;2022-07-31T14:00:28;3.33;;;3.03;;
6566;SDS011;3317;43.994;22.878;2022-07-31T14:02:55;2.97;;;2.67;;
6566;SDS011;3317;43.994;22.878;2022-07-31T14:05:25;3.20;;;2.90;;
6566;SDS011;3317;43.994;22.878;2022-07-31T14:07:53;3.20;;;2.90;;
6566;SDS011;3317;43.994;22.878;2022-07-31T14:10:20;3.20;;;2.90;;
6566;SDS011;3317;43.994;22.878;2022-07-31T14:12:47;5.10;;;2.80;;
6566;SDS011;3317;43.994;22.878;2022-07-31T14:15:14;3.17;;;2.87;;
6566;SDS011;3317;43.994;22.878;2022-07-31T14:17:43;5.37;;;2.73;;
6566;SDS011;3317;43.994;22.878;2022-07-31T14:20:10;2.70;;;2.50;;
6566;SDS011;3317;43.994;22.878;2022-07-31T14:22:38;3.33;;;2.80;;
6566;SDS011;3317;43.994;22.878;2022-07-31T14:25:05;3.73;;;2.87;;
6566;SDS011;3317;43.994;22.878;2022-07-31T14:27:32;3.87;;;3.10;;
6566;SDS011;3317;43.994;22.878;2022-07-31T14:29:59;3.57;;;3.27;;
6566;SDS011;3317;43.994;22.878;2022-07-31T14:32:27;3.83;;;3.53;;
6566;SDS011;3317;43.994;22.878;2022-07-31T14:34:56;4.30;;;3.90;;
6566;SDS011;3317;43.994;22.878;2022-07-31T14:37:23;4.30;;;3.90;;
6566;SDS011;3317;43.994;22.878;2022-07-31T14:39:50;4.03;;;3.60;;
6566;SDS011;3317;43.994;22.878;2022-07-31T14:42:17;4.63;;;3.70;;
6566;SDS011;3317;43.994;22.878;2022-07-31T14:44:45;4.97;;;3.50;;
6566;SDS011;3317;43.994;22.878;2022-07-31T14:47:12;3.50;;;3.20;;
6566;SDS011;3317;43.994;22.878;2022-07-31T14:49:39;3.60;;;3.20;;
6566;SDS011;3317;43.994;22.878;2022-07-31T14:52:08;3.80;;;2.80;;
6566;SDS011;3317;43.994;22.878;2022-07-31T14:54:35;3.23;;;2.93;;
6566;SDS011;3317;43.994;22.878;2022-07-31T14:57:02;2.90;;;2.70;;
6566;SDS011;3317;43.994;22.878;2022-07-31T14:59:30;4.47;;;2.93;;
6566;SDS011;3317;43.994;22.878;2022-07-31T15:01:58;6.60;;;3.30;;